createdAt,value
2019-03-29T00:01:20.692Z,96731.56
2019-03-29T00:03:49.224Z,96731.48
2019-03-29T00:06:17.788Z,96726.03
2019-03-29T00:08:46.407Z,96731.08
2019-03-29T00:11:14.989Z,96723.47
2019-03-29T00:13:43.603Z,96724.55
2019-03-29T00:16:12.169Z,96722.20
2019-03-29T00:18:40.637Z,96713.49
2019-03-29T00:21:09.279Z,96712.28
2019-03-29T00:23:37.884Z,96712.61
2019-03-29T00:26:06.490Z,96713.41
2019-03-29T00:28:37.719Z,96717.64
2019-03-29T00:31:06.340Z,96712.37
2019-03-29T00:33:35.027Z,96707.45
2019-03-29T00:36:03.672Z,96703.67
2019-03-29T00:38:32.140Z,96700.22
2019-03-29T00:41:00.622Z,96698.51
2019-03-29T00:43:29.306Z,96698.11
2019-03-29T00:45:57.952Z,96700.49
2019-03-29T00:48:26.550Z,96699.47
2019-03-29T00:50:55.147Z,96697.77
2019-03-29T00:53:23.756Z,96694.76
2019-03-29T00:55:52.301Z,96697.48
2019-03-29T00:58:21.016Z,96698.96
2019-03-29T01:00:49.641Z,96697.06
2019-03-29T01:03:18.307Z,96701.45
2019-03-29T01:05:47.006Z,96696.28
2019-03-29T01:08:16.082Z,96695.54
2019-03-29T01:10:44.731Z,96691.14
2019-03-29T01:13:13.410Z,96689.40
2019-03-29T01:15:42.088Z,96689.16
2019-03-29T01:18:11.232Z,96691.35
2019-03-29T01:20:40.924Z,96693.47
2019-03-29T01:23:09.622Z,96693.02
2019-03-29T01:25:38.195Z,96691.27
2019-03-29T01:28:06.878Z,96690.02
2019-03-29T01:30:35.475Z,96686.16
2019-03-29T01:33:04.110Z,96680.34
2019-03-29T01:35:32.821Z,96690.73
2019-03-29T01:38:01.553Z,96695.78
2019-03-29T01:40:30.166Z,96696.55
2019-03-29T01:42:58.877Z,96697.44
2019-03-29T01:45:27.469Z,96693.17
2019-03-29T01:47:56.160Z,96694.03
2019-03-29T01:50:25.222Z,96688.01
2019-03-29T01:52:53.770Z,96684.68
2019-03-29T01:55:22.389Z,96685.08
2019-03-29T01:57:51.958Z,96685.00
2019-03-29T02:00:32.050Z,96692.97
2019-03-29T02:03:00.695Z,96693.50
2019-03-29T02:05:29.667Z,96689.67
2019-03-29T02:07:58.204Z,96689.19
2019-03-29T02:10:27.204Z,96695.27
2019-03-29T02:12:55.813Z,96683.59
2019-03-29T02:15:24.416Z,96696.02
2019-03-29T02:17:53.016Z,96695.97
2019-03-29T02:20:21.663Z,96700.84
2019-03-29T02:22:50.399Z,96709.06
2019-03-29T02:25:18.980Z,96722.73
2019-03-29T02:27:47.705Z,96730.92
2019-03-29T02:30:16.550Z,96728.50
2019-03-29T02:32:45.092Z,96725.26
2019-03-29T02:35:14.388Z,96727.05
2019-03-29T02:37:42.909Z,96732.89
2019-03-29T02:40:11.555Z,96740.31
2019-03-29T02:42:40.178Z,96741.57
2019-03-29T02:45:09.196Z,96744.23
2019-03-29T02:47:37.866Z,96750.74
2019-03-29T02:50:08.566Z,96758.92
2019-03-29T02:52:37.675Z,96759.86
2019-03-29T02:55:13.400Z,96760.31
2019-03-29T02:57:46.261Z,96765.84
2019-03-29T03:00:13.617Z,96762.06
2019-03-29T03:02:42.305Z,96761.13
2019-03-29T03:05:11.308Z,96764.01
2019-03-29T03:07:39.896Z,96767.73
2019-03-29T03:10:10.218Z,96758.30
2019-03-29T03:12:38.919Z,96750.29
2019-03-29T03:15:09.736Z,96751.55
2019-03-29T03:17:38.746Z,96750.74
2019-03-29T03:20:15.344Z,96753.26
2019-03-29T03:22:44.958Z,96750.34
2019-03-29T03:25:13.950Z,96758.30
2019-03-29T03:27:42.590Z,96759.02
2019-03-29T03:30:12.677Z,96763.56
2019-03-29T03:32:41.309Z,96766.75
2019-03-29T03:35:10.877Z,96768.01
2019-03-29T03:37:39.607Z,96762.80
2019-03-29T03:40:09.720Z,96761.31
2019-03-29T03:42:38.381Z,96764.10
2019-03-29T03:45:08.398Z,96763.61
2019-03-29T03:47:38.922Z,96772.24
2019-03-29T03:50:08.303Z,96768.69
2019-03-29T03:52:36.930Z,96759.34
2019-03-29T03:55:06.671Z,96744.00
2019-03-29T03:57:37.728Z,96738.69
2019-03-29T04:00:10.402Z,96755.06
2019-03-29T04:02:38.928Z,96755.91
2019-03-29T04:05:07.536Z,96758.52
2019-03-29T04:07:35.998Z,96763.88
2019-03-29T04:10:07.219Z,96754.97
2019-03-29T04:12:35.807Z,96756.58
2019-03-29T04:15:05.488Z,96761.98
2019-03-29T04:17:34.057Z,96759.78
2019-03-29T04:20:02.690Z,96762.71
2019-03-29T04:22:31.297Z,96768.14
2019-03-29T04:24:59.832Z,96772.38
2019-03-29T04:27:28.405Z,96775.38
2019-03-29T04:29:56.979Z,96768.59
2019-03-29T04:32:25.590Z,96772.78
2019-03-29T04:34:59.325Z,96770.27
2019-03-29T04:37:29.308Z,96768.69
2019-03-29T04:40:07.109Z,96764.19
2019-03-29T04:42:28.215Z,96764.19
2019-03-29T04:44:59.671Z,96770.75
2019-03-29T04:47:26.980Z,96766.08
2019-03-29T04:49:55.589Z,96769.86
2019-03-29T04:52:24.211Z,96766.75
2019-03-29T04:54:52.911Z,96774.62
2019-03-29T04:57:21.575Z,96770.67
2019-03-29T04:59:50.186Z,96774.17
2019-03-29T05:02:18.873Z,96773.68
2019-03-29T05:04:47.741Z,96773.28
2019-03-29T05:07:16.359Z,96776.91
2019-03-29T05:09:44.991Z,96771.48
2019-03-29T05:12:13.717Z,96769.13
2019-03-29T05:14:42.180Z,96773.05
2019-03-29T05:17:10.674Z,96784.15
2019-03-29T05:19:39.343Z,96777.14
2019-03-29T05:22:07.807Z,96771.56
2019-03-29T05:24:36.450Z,96779.88
2019-03-29T05:27:05.190Z,96776.64
2019-03-29T05:29:33.801Z,96780.33
2019-03-29T05:32:02.332Z,96780.95
2019-03-29T05:34:31.008Z,96773.94
2019-03-29T05:36:59.522Z,96766.83
2019-03-29T05:39:30.619Z,96766.73
2019-03-29T05:41:59.218Z,96766.55
2019-03-29T05:44:27.711Z,96769.28
2019-03-29T05:46:56.252Z,96772.74
2019-03-29T05:49:24.740Z,96769.50
2019-03-29T05:51:54.567Z,96766.20
2019-03-29T05:54:23.160Z,96759.64
2019-03-29T05:56:51.664Z,96756.97
2019-03-29T05:59:20.283Z,96758.48
2019-03-29T06:01:48.912Z,96768.41
2019-03-29T06:04:17.611Z,96765.70
2019-03-29T06:06:46.192Z,96761.59
2019-03-29T06:09:14.656Z,96760.55
2019-03-29T06:11:43.245Z,96764.67
2019-03-29T06:14:11.914Z,96769.27
2019-03-29T06:16:40.547Z,96769.96
2019-03-29T06:19:09.179Z,96769.36
2019-03-29T06:21:37.718Z,96768.95
2019-03-29T06:24:06.352Z,96778.88
2019-03-29T06:26:35.179Z,96773.83
2019-03-29T06:29:03.800Z,96773.96
2019-03-29T06:31:32.403Z,96773.03
2019-03-29T06:34:01.013Z,96769.98
2019-03-29T06:36:31.809Z,96772.86
2019-03-29T06:39:01.721Z,96775.70
2019-03-29T06:41:30.344Z,96777.44
2019-03-29T06:43:58.831Z,96779.55
2019-03-29T06:46:27.508Z,96775.45
2019-03-29T06:48:56.019Z,96773.23
2019-03-29T06:51:24.563Z,96764.04
2019-03-29T06:53:53.119Z,96757.32
2019-03-29T06:56:21.736Z,96758.22
2019-03-29T06:58:50.338Z,96755.09
2019-03-29T07:01:18.949Z,96755.88
2019-03-29T07:03:47.543Z,96755.73
2019-03-29T07:06:16.046Z,96756.37
2019-03-29T07:08:44.573Z,96756.09
2019-03-29T07:11:17.693Z,96753.62
2019-03-29T07:13:56.585Z,96748.68
2019-03-29T07:16:13.775Z,96741.75
2019-03-29T07:18:42.376Z,96740.11
2019-03-29T07:21:21.273Z,96740.09
2019-03-29T07:23:41.234Z,96746.78
2019-03-29T07:26:09.873Z,96748.13
2019-03-29T07:28:38.339Z,96748.53
2019-03-29T07:31:06.957Z,96744.09
2019-03-29T07:33:36.335Z,96740.97
2019-03-29T07:36:04.870Z,96732.93
2019-03-29T07:38:33.414Z,96732.88
2019-03-29T07:41:02.388Z,96724.33
2019-03-29T07:43:33.329Z,96722.80
2019-03-29T07:46:01.859Z,96728.07
2019-03-29T07:48:30.331Z,96724.10
2019-03-29T07:50:59.050Z,96734.11
2019-03-29T07:53:30.289Z,96733.64
2019-03-29T07:55:58.862Z,96721.98
2019-03-29T07:58:27.393Z,96721.72
2019-03-29T08:00:55.938Z,96720.48
2019-03-29T08:03:24.587Z,96725.94
2019-03-29T08:05:53.238Z,96716.20
2019-03-29T08:08:25.018Z,96716.08
2019-03-29T08:10:53.932Z,96715.81
2019-03-29T08:13:23.322Z,96712.52
2019-03-29T08:15:51.966Z,96709.52
2019-03-29T08:18:20.572Z,96711.30
2019-03-29T08:20:49.232Z,96697.64
2019-03-29T08:23:17.836Z,96701.39
2019-03-29T08:25:46.711Z,96696.69
2019-03-29T08:28:15.318Z,96696.36
2019-03-29T08:30:43.855Z,96694.18
2019-03-29T08:33:12.396Z,96694.61
2019-03-29T08:35:40.962Z,96683.26
2019-03-29T08:38:09.638Z,96674.34
2019-03-29T08:40:38.255Z,96677.09
2019-03-29T08:43:06.871Z,96686.06
2019-03-29T08:45:35.418Z,96694.02
2019-03-29T08:48:06.677Z,96689.80
2019-03-29T08:50:34.358Z,96683.51
2019-03-29T08:53:02.902Z,96675.61
2019-03-29T08:55:45.102Z,96673.53
2019-03-29T08:58:03.314Z,96681.80
2019-03-29T09:00:32.818Z,96687.05
2019-03-29T09:03:01.552Z,96692.59
2019-03-29T09:05:30.141Z,96711.45
2019-03-29T09:07:59.366Z,96692.37
2019-03-29T09:10:28.176Z,96693.23
2019-03-29T09:12:56.718Z,96689.81
2019-03-29T09:15:25.293Z,96681.52
2019-03-29T09:17:53.838Z,96687.28
2019-03-29T09:20:22.381Z,96687.30
2019-03-29T09:22:51.044Z,96687.75
2019-03-29T09:25:21.109Z,96675.36
2019-03-29T09:27:49.936Z,96679.11
2019-03-29T09:30:18.663Z,96674.41
2019-03-29T09:32:50.918Z,96670.86
2019-03-29T09:35:17.686Z,96676.89
2019-03-29T09:37:46.224Z,96666.31
2019-03-29T09:40:15.189Z,96664.70
2019-03-29T09:42:43.730Z,96660.09
2019-03-29T09:45:12.646Z,96662.32
2019-03-29T09:47:41.294Z,96664.02
2019-03-29T09:50:10.916Z,96662.65
2019-03-29T09:52:41.328Z,96651.53
2019-03-29T09:55:10.058Z,96652.84
2019-03-29T09:57:38.628Z,96653.34
2019-03-29T10:00:19.209Z,96662.30
2019-03-29T10:02:39.096Z,96655.39
2019-03-29T10:05:07.903Z,96666.39
2019-03-29T10:07:36.523Z,96649.58
2019-03-29T10:10:06.839Z,96651.27
2019-03-29T10:12:43.741Z,96655.25
2019-03-29T10:15:07.887Z,96641.03
2019-03-29T10:17:36.457Z,96647.85
2019-03-29T10:20:07.470Z,96639.63
2019-03-29T10:22:36.058Z,96639.63
2019-03-29T10:25:18.467Z,96635.80
2019-03-29T10:27:37.548Z,96634.21
2019-03-29T10:30:09.184Z,96632.11
2019-03-29T10:32:37.723Z,96629.17
2019-03-29T10:35:07.303Z,96639.45
2019-03-29T10:37:35.936Z,96634.00
2019-03-29T10:40:07.994Z,96634.09
2019-03-29T10:42:40.277Z,96624.66
2019-03-29T10:45:08.659Z,96621.72
2019-03-29T10:47:43.739Z,96623.80
2019-03-29T10:50:07.976Z,96623.77
2019-03-29T10:52:36.526Z,96622.09
2019-03-29T10:55:05.770Z,96619.50
2019-03-29T10:57:34.339Z,96618.20
2019-03-29T11:00:03.611Z,96620.73
2019-03-29T11:02:32.133Z,96621.66
2019-03-29T11:05:00.676Z,96611.47
2019-03-29T11:07:29.285Z,96610.20
2019-03-29T11:09:57.751Z,96617.89
2019-03-29T11:12:26.293Z,96611.50
2019-03-29T11:14:54.923Z,96615.80
2019-03-29T11:17:23.401Z,96609.84
2019-03-29T11:19:51.944Z,96605.56
2019-03-29T11:22:20.621Z,96600.50
2019-03-29T11:24:49.108Z,96605.63
2019-03-29T11:27:17.823Z,96591.97
2019-03-29T11:29:46.379Z,96579.96
2019-03-29T11:32:14.911Z,96576.09
2019-03-29T11:34:43.553Z,96563.66
2019-03-29T11:37:12.037Z,96564.97
2019-03-29T11:39:41.833Z,96557.31
2019-03-29T11:42:10.295Z,96559.45
2019-03-29T11:44:38.764Z,96541.50
2019-03-29T11:47:07.860Z,96536.41
2019-03-29T11:49:36.471Z,96543.23
2019-03-29T11:52:05.134Z,96543.70
2019-03-29T11:54:33.768Z,96543.70
2019-03-29T11:57:02.678Z,96538.11
2019-03-29T11:59:31.282Z,96538.96
2019-03-29T12:01:59.833Z,96536.87
2019-03-29T12:04:28.396Z,96532.16
2019-03-29T12:06:57.102Z,96529.14
2019-03-29T12:09:26.008Z,96531.26
2019-03-29T12:11:54.553Z,96526.12
2019-03-29T12:14:23.175Z,96523.13
2019-03-29T12:16:53.388Z,96520.55
2019-03-29T12:19:21.938Z,96522.71
2019-03-29T12:21:50.479Z,96523.56
2019-03-29T12:24:19.106Z,96520.61
2019-03-29T12:26:47.722Z,96519.73
2019-03-29T12:29:16.312Z,96519.34
2019-03-29T12:31:44.921Z,96513.31
2019-03-29T12:34:13.797Z,96513.73
2019-03-29T12:36:42.334Z,96518.03
2019-03-29T12:39:11.422Z,96514.59
2019-03-29T12:41:40.015Z,96517.59
2019-03-29T12:44:08.553Z,96506.91
2019-03-29T12:46:38.457Z,96503.05
2019-03-29T12:49:06.984Z,96495.78
2019-03-29T12:51:36.428Z,96505.63
2019-03-29T12:54:05.447Z,96497.91
2019-03-29T12:56:34.043Z,96485.91
2019-03-29T12:59:03.705Z,96481.23
2019-03-29T13:01:39.719Z,96484.23
2019-03-29T13:04:04.210Z,96494.03
2019-03-29T13:06:32.880Z,96492.73
2019-03-29T13:09:01.386Z,96491.01
2019-03-29T13:11:30.028Z,96488.47
2019-03-29T13:14:09.491Z,96489.73
2019-03-29T13:16:30.330Z,96487.17
2019-03-29T13:18:58.879Z,96479.50
2019-03-29T13:21:27.448Z,96476.07
2019-03-29T13:23:56.064Z,96482.05
2019-03-29T13:26:24.600Z,96483.73
2019-03-29T13:28:58.492Z,96485.88
2019-03-29T13:31:26.534Z,96468.35
2019-03-29T13:33:55.142Z,96465.36
2019-03-29T13:36:23.788Z,96462.35
2019-03-29T13:38:52.433Z,96462.80
2019-03-29T13:41:21.114Z,96451.26
2019-03-29T13:43:49.664Z,96449.55
2019-03-29T13:46:18.164Z,96450.83
2019-03-29T13:48:46.773Z,96450.41
2019-03-29T13:51:15.401Z,96455.52
2019-03-29T13:53:43.960Z,96453.41
2019-03-29T13:56:12.520Z,96456.38
2019-03-29T13:58:41.039Z,96454.23
2019-03-29T14:01:09.648Z,96455.53
2019-03-29T14:03:38.115Z,96449.98
2019-03-29T14:06:06.699Z,96454.23
2019-03-29T14:08:35.166Z,96450.81
2019-03-29T14:11:03.773Z,96442.27
2019-03-29T14:13:32.387Z,96444.83
2019-03-29T14:16:00.928Z,96436.72
2019-03-29T14:18:29.548Z,96436.72
2019-03-29T14:20:59.160Z,96440.53
2019-03-29T14:23:27.638Z,96437.55
2019-03-29T14:25:56.174Z,96437.95
2019-03-29T14:28:24.792Z,96427.26
2019-03-29T14:30:53.260Z,96428.13
2019-03-29T14:33:21.875Z,96425.59
2019-03-29T14:35:50.347Z,96426.02
2019-03-29T14:38:18.951Z,96430.30
2019-03-29T14:40:47.565Z,96419.17
2019-03-29T14:43:17.006Z,96417.06
2019-03-29T14:45:45.630Z,96419.63
2019-03-29T14:48:14.267Z,96411.94
2019-03-29T14:50:42.911Z,96406.39
2019-03-29T14:53:11.457Z,96408.53
2019-03-29T14:55:40.099Z,96405.96
2019-03-29T14:58:08.744Z,96400.39
2019-03-29T15:00:42.443Z,96400.82
2019-03-29T15:03:11.090Z,96396.13
2019-03-29T15:05:40.438Z,96390.16
2019-03-29T15:08:09.059Z,96389.30
2019-03-29T15:10:37.671Z,96389.72
2019-03-29T15:13:06.213Z,96390.97
2019-03-29T15:15:34.832Z,96391.39
2019-03-29T15:18:03.478Z,96386.23
2019-03-29T15:20:32.081Z,96384.93
2019-03-29T15:23:00.651Z,96386.21
2019-03-29T15:25:32.207Z,96378.95
2019-03-29T15:28:00.938Z,96376.39
2019-03-29T15:30:29.573Z,96389.57
2019-03-29T15:32:58.112Z,96385.71
2019-03-29T15:35:31.576Z,96381.03
2019-03-29T15:37:57.056Z,96384.44
2019-03-29T15:40:25.588Z,96376.30
2019-03-29T15:42:54.185Z,96377.59
2019-03-29T15:45:25.503Z,96376.70
2019-03-29T15:47:54.057Z,96376.70
2019-03-29T15:50:22.621Z,96378.38
2019-03-29T15:52:51.156Z,96372.41
2019-03-29T15:55:19.781Z,96379.64
2019-03-29T15:57:48.322Z,96375.35
2019-03-29T16:00:17.305Z,96368.48
2019-03-29T16:02:45.911Z,96368.92
2019-03-29T16:05:14.556Z,96376.98
2019-03-29T16:07:43.155Z,96370.14
2019-03-29T16:10:11.765Z,96376.94
2019-03-29T16:12:40.318Z,96371.38
2019-03-29T16:15:08.955Z,96371.33
2019-03-29T16:17:40.633Z,96373.87
2019-03-29T16:20:09.639Z,96375.53
2019-03-29T16:22:38.240Z,96373.80
2019-03-29T16:25:07.820Z,96377.17
2019-03-29T16:27:36.459Z,96379.72
2019-03-29T16:30:06.967Z,96378.84
2019-03-29T16:32:36.343Z,96387.76
2019-03-29T16:35:07.151Z,96388.13
2019-03-29T16:37:35.689Z,96384.27
2019-03-29T16:40:06.317Z,96389.30
2019-03-29T16:42:36.528Z,96389.23
2019-03-29T16:45:06.777Z,96392.14
2019-03-29T16:47:35.388Z,96386.14
2019-03-29T16:50:07.530Z,96385.27
2019-03-29T16:52:35.986Z,96384.80
2019-03-29T16:55:13.026Z,96383.89
2019-03-29T16:57:38.729Z,96386.80
2019-03-29T17:00:12.635Z,96386.28
2019-03-29T17:02:41.687Z,96386.55
2019-03-29T17:05:10.387Z,96381.34
2019-03-29T17:07:38.957Z,96385.52
2019-03-29T17:10:08.361Z,96387.09
2019-03-29T17:12:38.540Z,96391.23
2019-03-29T17:15:07.876Z,96386.05
2019-03-29T17:17:36.512Z,96385.08
2019-03-29T17:20:07.686Z,96399.44
2019-03-29T17:22:37.319Z,96394.22
2019-03-29T17:25:08.885Z,96403.87
2019-03-29T17:27:37.504Z,96399.92
2019-03-29T17:30:08.942Z,96398.55
2019-03-29T17:32:37.575Z,96400.60
2019-03-29T17:35:07.383Z,96406.41
2019-03-29T17:37:36.014Z,96410.16
2019-03-29T17:40:07.890Z,96412.64
2019-03-29T17:42:36.524Z,96415.11
2019-03-29T17:45:07.169Z,96414.16
2019-03-29T17:47:38.197Z,96425.54
2019-03-29T17:50:07.279Z,96417.33
2019-03-29T17:52:35.845Z,96421.49
2019-03-29T17:55:05.872Z,96421.38
2019-03-29T17:57:34.464Z,96423.77
2019-03-29T18:00:06.442Z,96423.18
2019-03-29T18:02:35.079Z,96428.14
2019-03-29T18:05:04.955Z,96432.69
2019-03-29T18:07:33.533Z,96433.78
2019-03-29T18:10:02.183Z,96428.95
2019-03-29T18:12:30.713Z,96426.27
2019-03-29T18:14:59.286Z,96419.78
2019-03-29T18:17:27.744Z,96423.88
2019-03-29T18:19:56.209Z,96418.58
2019-03-29T18:22:26.266Z,96429.38
2019-03-29T18:24:54.804Z,96436.91
2019-03-29T18:27:23.427Z,96429.56
2019-03-29T18:29:53.277Z,96428.23
2019-03-29T18:32:21.751Z,96426.86
2019-03-29T18:34:50.579Z,96425.13
2019-03-29T18:37:19.588Z,96427.99
2019-03-29T18:39:48.203Z,96430.02
2019-03-29T18:42:16.742Z,96430.81
2019-03-29T18:44:45.342Z,96436.63
2019-03-29T18:47:15.210Z,96428.81
2019-03-29T18:49:43.780Z,96427.81
2019-03-29T18:52:12.314Z,96431.51
2019-03-29T18:54:40.937Z,96432.20
2019-03-29T18:57:09.478Z,96435.91
2019-03-29T18:59:38.095Z,96429.41
2019-03-29T19:02:06.629Z,96429.77
2019-03-29T19:04:35.131Z,96432.56
2019-03-29T19:07:03.762Z,96426.89
2019-03-29T19:09:32.293Z,96425.88
2019-03-29T19:12:00.827Z,96427.05
2019-03-29T19:14:29.454Z,96423.03
2019-03-29T19:16:59.521Z,96423.33
2019-03-29T19:19:28.236Z,96423.21
2019-03-29T19:21:56.776Z,96423.52
2019-03-29T19:24:25.379Z,96425.83
2019-03-29T19:26:54.229Z,96426.50
2019-03-29T19:29:22.839Z,96424.63
2019-03-29T19:31:51.387Z,96422.33
2019-03-29T19:34:20.032Z,96419.67
2019-03-29T19:36:48.644Z,96422.09
2019-03-29T19:39:17.297Z,96416.89
2019-03-29T19:41:45.770Z,96417.60
2019-03-29T19:44:14.246Z,96413.20
2019-03-29T19:46:42.857Z,96413.08
2019-03-29T19:49:11.399Z,96412.95
2019-03-29T19:51:40.019Z,96410.70
2019-03-29T19:54:08.697Z,96416.98
2019-03-29T19:56:37.263Z,96419.32
2019-03-29T19:59:07.912Z,96429.33
2019-03-29T20:01:36.083Z,96424.55
2019-03-29T20:04:04.805Z,96419.29
2019-03-29T20:06:33.370Z,96419.23
2019-03-29T20:09:01.981Z,96417.06
2019-03-29T20:11:30.638Z,96412.33
2019-03-29T20:13:59.184Z,96418.11
2019-03-29T20:16:27.735Z,96414.18
2019-03-29T20:18:56.340Z,96421.58
2019-03-29T20:21:25.046Z,96420.59
2019-03-29T20:23:53.511Z,96428.48
2019-03-29T20:26:23.523Z,96420.81
2019-03-29T20:28:52.067Z,96422.52
2019-03-29T20:31:20.699Z,96418.28
2019-03-29T20:33:49.166Z,96408.57
2019-03-29T20:36:22.781Z,96414.43
2019-03-29T20:38:48.472Z,96410.91
2019-03-29T20:41:18.654Z,96411.67
2019-03-29T20:43:47.443Z,96409.42
2019-03-29T20:46:16.217Z,96401.69
2019-03-29T20:48:44.832Z,96398.69
2019-03-29T20:51:13.366Z,96399.45
2019-03-29T20:53:43.652Z,96394.69
2019-03-29T20:56:12.254Z,96393.28
2019-03-29T20:58:42.714Z,96391.44
2019-03-29T21:01:11.237Z,96391.65
2019-03-29T21:03:39.717Z,96389.47
2019-03-29T21:06:09.863Z,96392.69
2019-03-29T21:08:39.691Z,96387.98
2019-03-29T21:11:08.191Z,96385.30
2019-03-29T21:13:36.795Z,96388.59
2019-03-29T21:16:06.867Z,96384.69
2019-03-29T21:18:35.438Z,96390.45
2019-03-29T21:21:04.048Z,96387.77
2019-03-29T21:23:32.689Z,96388.13
2019-03-29T21:26:01.211Z,96387.27
2019-03-29T21:28:29.755Z,96389.23
2019-03-29T21:30:58.222Z,96387.13
2019-03-29T21:33:26.861Z,96387.44
2019-03-29T21:35:55.445Z,96392.84
2019-03-29T21:38:24.013Z,96391.08
2019-03-29T21:40:52.825Z,96382.88
2019-03-29T21:43:21.437Z,96388.19
2019-03-29T21:45:50.073Z,96386.77
2019-03-29T21:48:28.504Z,96384.09
2019-03-29T21:50:48.990Z,96375.53
2019-03-29T21:53:17.512Z,96380.02
2019-03-29T21:55:46.057Z,96377.91
2019-03-29T21:58:14.527Z,96385.07
2019-03-29T22:00:43.227Z,96378.41
2019-03-29T22:03:11.749Z,96376.29
2019-03-29T22:05:40.529Z,96378.38
2019-03-29T22:08:09.139Z,96377.81
2019-03-29T22:10:37.674Z,96375.48
2019-03-29T22:13:06.297Z,96372.80
2019-03-29T22:15:34.889Z,96366.32
2019-03-29T22:18:06.792Z,96365.84
2019-03-29T22:20:33.692Z,96362.31
2019-03-29T22:23:02.188Z,96358.70
2019-03-29T22:25:30.730Z,96354.31
2019-03-29T22:27:59.368Z,96353.40
2019-03-29T22:30:27.986Z,96358.80
2019-03-29T22:32:56.616Z,96359.96
2019-03-29T22:35:25.193Z,96357.30
2019-03-29T22:37:53.820Z,96349.73
2019-03-29T22:40:22.279Z,96358.73
2019-03-29T22:42:50.843Z,96357.03
2019-03-29T22:45:19.468Z,96356.02
2019-03-29T22:47:49.418Z,96351.30
2019-03-29T22:50:17.994Z,96352.00
2019-03-29T22:52:46.535Z,96348.97
2019-03-29T22:55:15.178Z,96350.50
2019-03-29T22:57:43.783Z,96356.75
2019-03-29T23:00:18.435Z,96355.39
2019-03-29T23:02:47.109Z,96356.14
2019-03-29T23:05:15.790Z,96353.11
2019-03-29T23:07:44.453Z,96358.19
2019-03-29T23:10:13.227Z,96355.56
2019-03-29T23:12:41.787Z,96352.88
2019-03-29T23:15:10.458Z,96346.88
2019-03-29T23:17:39.063Z,96344.63
2019-03-29T23:20:07.804Z,96345.83
2019-03-29T23:22:36.275Z,96347.59
2019-03-29T23:25:05.586Z,96341.70
2019-03-29T23:27:34.650Z,96346.33
2019-03-29T23:30:03.654Z,96341.29
2019-03-29T23:32:32.218Z,96342.86
2019-03-29T23:35:01.872Z,96346.06
2019-03-29T23:37:30.464Z,96352.61
2019-03-29T23:39:59.168Z,96351.63
2019-03-29T23:42:27.802Z,96352.03
2019-03-29T23:44:56.271Z,96349.00
2019-03-29T23:47:24.923Z,96351.75
2019-03-29T23:49:53.500Z,96351.62
2019-03-29T23:52:21.951Z,96347.73
2019-03-29T23:54:50.566Z,96349.73
2019-03-29T23:57:21.784Z,96352.70
2019-03-29T23:59:50.373Z,96351.78
